Time;durP1;ratioP1;P1;durP2;ratioP2;P2;SDS_P1;SDS_P2;PMS_P1;PMS_P2;Temp;Humidity;BMP_temperature;BMP_pressure;BME280_temperature;BME280_humidity;BME280_pressure;Samples;Min_cycle;Max_cycle;Signal;HPM_P1;HPM_P2
2022/08/04 07:38:32;;;;;;;8.20;5.03;;;;;;;24.00;100.00;99198.28;4504573;31;20171;-73
2022/08/04 07:41:02;;;;;;;7.00;4.97;;;;;;;24.00;100.00;99198.28;4480000;32;20543;-74
2022/08/04 07:43:30;;;;;;;5.37;4.80;;;;;;;24.13;100.00;99202.69;4484068;32;20064;-72
2022/08/04 07:45:56;;;;;;;13.88;4.85;;;;;;;24.49;100.00;99195.72;4470063;32;20456;-73
2022/08/04 07:48:23;;;;;;;10.05;5.68;;;;;;;24.73;100.00;99194.22;4479278;32;20131;-73
2022/08/04 07:52:19;;;;;;;11.50;5.37;;;;;;;25.54;100.00;99202.81;4484495;31;20150;-73
2022/08/04 07:54:47;;;;;;;5.25;4.70;;;;;;;25.54;100.00;99202.81;4473673;32;20052;-73
2022/08/04 07:57:17;;;;;;;7.30;4.87;;;;;;;25.12;100.00;99164.47;4473274;32;20053;-75
2022/08/04 07:59:43;;;;;;;10.50;4.60;;;;;;;25.41;100.00;99193.75;4475763;32;20075;-72
2022/08/04 08:02:14;;;;;;;5.85;4.90;;;;;;;25.40;100.00;99174.81;4474756;32;20397;-73
2022/08/04 08:04:42;;;;;;;14.38;4.75;;;;;;;25.67;100.00;99207.19;4466250;32;20077;-72
2022/08/04 08:07:08;;;;;;;6.28;4.55;;;;;;;25.71;100.00;99201.78;4464320;32;20038;-73
2022/08/04 08:09:35;;;;;;;9.43;4.47;;;;;;;25.84;100.00;99188.78;4463658;32;20112;-72
2022/08/04 08:12:01;;;;;;;8.15;4.70;;;;;;;25.42;100.00;99148.53;4441167;32;20379;-74
2022/08/04 08:14:29;;;;;;;11.05;4.15;;;;;;;25.96;100.00;99180.47;4451080;32;20026;-74
2022/08/04 08:16:58;;;;;;;4.68;4.28;;;;;;;26.27;100.00;99198.31;4407980;32;20043;-75
2022/08/04 08:19:25;;;;;;;8.70;4.60;;;;;;;26.37;100.00;99195.06;4410986;32;20653;-73
2022/08/04 08:21:52;;;;;;;4.65;4.03;;;;;;;25.41;100.00;99071.69;4414692;32;20038;-76
2022/08/04 08:24:18;;;;;;;6.10;4.30;;;;;;;26.17;100.00;99196.06;4416614;32;20206;-73
2022/08/04 08:26:45;;;;;;;7.10;5.03;;;;;;;26.01;100.00;99163.69;4417719;32;20045;-72
2022/08/04 08:29:12;;;;;;;5.43;4.93;;;;;;;26.20;100.00;99151.19;4409294;32;20057;-72
2022/08/04 08:31:39;;;;;;;14.15;4.90;;;;;;;26.36;100.00;99165.88;4365329;32;20101;-74
2022/08/04 08:34:05;;;;;;;8.43;4.45;;;;;;;26.33;100.00;99166.56;4365437;32;20036;-73
2022/08/04 08:36:56;;;;;;;6.35;5.32;;;;;;;26.56;100.00;99163.22;4375690;32;20061;-73
2022/08/04 08:39:31;;;;;;;5.00;4.37;;;;;;;26.58;100.00;99194.03;4379357;32;20039;-72
2022/08/04 08:42:24;;;;;;;8.13;4.97;;;;;;;26.42;100.00;99153.41;4380461;32;20051;-72
2022/08/04 08:45:24;;;;;;;4.97;4.57;;;;;;;26.61;100.00;99171.25;4380360;32;20432;-72
2022/08/04 08:48:05;;;;;;;11.90;4.87;;;;;;;26.66;100.00;99173.75;4398449;32;20110;-75
2022/08/04 08:50:52;;;;;;;;;;;;;;;26.87;100.00;99151.44;4415342;32;20068;-73
2022/08/04 08:53:43;;;;;;;5.43;4.37;;;;;;;27.02;100.00;99196.78;4395507;32;19940;-73
2022/08/04 08:56:12;;;;;;;6.90;5.50;;;;;;;26.97;100.00;99197.88;4395042;32;20404;-74
2022/08/04 08:58:59;;;;;;;7.15;4.87;;;;;;;26.84;100.00;99185.31;4380651;32;20058;-73
2022/08/04 09:01:50;;;;;;;12.63;5.32;;;;;;;27.03;100.00;99198.41;4377385;32;20505;-74
2022/08/04 09:04:34;;;;;;;8.15;5.35;;;;;;;27.45;100.00;99203.41;4399058;32;20053;-74
2022/08/04 09:07:28;;;;;;;4.85;4.35;;;;;;;27.35;100.00;99195.66;4385310;32;20098;-75
2022/08/04 09:10:00;;;;;;;5.93;4.55;;;;;;;27.35;100.00;99192.91;4385364;32;20028;-75
2022/08/04 09:12:36;;;;;;;5.53;4.45;;;;;;;27.28;100.00;99192.69;4385057;32;20060;-73
2022/08/04 09:15:38;;;;;;;6.47;4.12;;;;;;;27.51;100.00;99190.91;4370191;32;20326;-73
2022/08/04 09:18:08;;;;;;;;;;;;;;;27.25;100.00;99171.28;4356750;32;20962;-73
2022/08/04 09:20:45;;;;;;;11.23;3.83;;;;;;;27.45;100.00;99186.81;4369109;32;19944;-73
2022/08/04 09:23:36;;;;;;;5.45;4.80;;;;;;;27.27;100.00;99164.25;4369137;32;20453;-75
2022/08/04 09:26:10;;;;;;;11.90;5.37;;;;;;;27.49;100.00;99196.00;4399199;32;20022;-73
2022/08/04 09:28:53;;;;;;;8.25;4.00;;;;;;;27.60;100.00;99193.47;4401130;32;20042;-73
2022/08/04 09:31:29;;;;;;;5.12;4.18;;;;;;;27.53;99.21;99191.34;4430766;32;20383;-74
2022/08/04 09:34:19;;;;;;;4.85;4.22;;;;;;;27.87;99.94;99207.50;4430391;32;20162;-74
2022/08/04 09:37:12;;;;;;;6.25;4.62;;;;;;;27.79;99.76;99195.47;4430355;32;20042;-74
2022/08/04 09:40:18;;;;;;;7.87;4.22;;;;;;;27.43;92.81;99164.25;4426230;32;20038;-74
2022/08/04 09:42:47;;;;;;;12.52;5.10;;;;;;;27.58;91.27;99197.78;4448046;32;20161;-74
2022/08/04 09:45:26;;;;;;;6.25;4.32;;;;;;;27.64;94.33;99199.88;4446276;32;20052;-73
2022/08/04 09:47:58;;;;;;;4.80;4.40;;;;;;;27.63;93.29;99158.78;4447626;32;20057;-73
2022/08/04 09:50:39;;;;;;;4.97;4.07;;;;;;;27.34;91.60;99169.19;4446925;32;20137;-73
2022/08/04 09:53:32;;;;;;;6.22;5.65;;;;;;;27.41;96.49;99141.69;4414662;32;20481;-76
2022/08/04 09:56:09;;;;;;;5.65;4.05;;;;;;;27.16;90.94;99190.84;4414719;32;20068;-74
2022/08/04 09:59:10;;;;;;;6.05;4.03;;;;;;;27.40;87.80;99155.91;4398361;32;20027;-73
2022/08/04 10:01:37;;;;;;;4.32;4.03;;;;;;;27.68;90.52;99177.84;4390032;32;20061;-73
2022/08/04 10:04:10;;;;;;;4.37;3.85;;;;;;;27.89;90.80;99164.47;4399481;32;20043;-73
2022/08/04 10:07:08;;;;;;;6.37;4.12;;;;;;;28.11;94.64;99176.00;4397134;32;20042;-74
2022/08/04 10:10:13;;;;;;;7.90;4.37;;;;;;;28.01;91.59;99179.38;4399604;32;20502;-73
2022/08/04 10:13:03;;;;;;;14.02;3.67;;;;;;;28.12;89.78;99185.94;4382302;32;20035;-74
2022/08/04 10:15:32;;;;;;;4.72;3.80;;;;;;;27.93;89.25;99119.50;4397429;32;20076;-73
2022/08/04 10:18:04;;;;;;;4.00;3.60;;;;;;;28.37;87.29;99186.44;4398250;32;20038;-73
2022/08/04 10:21:09;;;;;;;3.72;3.47;;;;;;;28.49;87.13;99170.81;4397589;32;20038;-74
2022/08/04 10:23:57;;;;;;;3.92;3.67;;;;;;;28.49;87.90;99182.69;4402765;32;20065;-74
2022/08/04 10:26:35;;;;;;;4.03;3.70;;;;;;;28.23;90.87;99172.31;4413608;32;20068;-76
2022/08/04 10:29:08;;;;;;;6.62;3.70;;;;;;;28.47;88.79;99171.19;4421557;32;20442;-74
2022/08/04 10:31:43;;;;;;;12.70;3.30;;;;;;;28.46;88.05;99166.81;4447608;32;20374;-73
2022/08/04 10:34:19;;;;;;;11.60;3.65;;;;;;;28.59;85.90;99171.06;4445147;32;20038;-74
2022/08/04 10:36:57;;;;;;;8.30;3.75;;;;;;;28.44;81.13;99135.94;4446988;32;20038;-73
2022/08/04 10:39:31;;;;;;;9.27;3.60;;;;;;;28.76;83.31;99161.44;4447588;32;20339;-73
2022/08/04 10:42:23;;;;;;;3.28;3.08;;;;;;;28.76;85.08;99157.91;4445355;32;20049;-74
2022/08/04 10:45:09;;;;;;;3.35;3.15;;;;;;;28.60;78.92;99156.03;4447269;32;20056;-73
2022/08/04 10:47:44;;;;;;;4.15;3.75;;;;;;;28.20;67.64;99160.00;4445628;32;20946;-73
2022/08/04 10:50:11;;;;;;;4.35;3.30;;;;;;;28.24;74.33;99133.19;4447069;32;20067;-73
2022/08/04 10:52:53;;;;;;;4.20;3.35;;;;;;;28.91;68.65;99142.31;4444811;32;20053;-73
2022/08/04 10:55:39;;;;;;;10.20;3.78;;;;;;;28.85;72.85;99116.91;4444203;32;20106;-73
2022/08/04 10:58:13;;;;;;;8.38;4.55;;;;;;;29.30;75.96;99147.72;4446421;32;20042;-72
2022/08/04 11:00:42;;;;;;;3.65;3.42;;;;;;;28.90;70.97;99113.81;4446398;32;20049;-74
2022/08/04 11:03:22;;;;;;;4.45;2.83;;;;;;;28.43;73.39;99079.75;4446098;32;20049;-72
2022/08/04 11:05:48;;;;;;;4.30;2.83;;;;;;;28.79;71.31;99118.38;4445479;32;20038;-73
2022/08/04 11:08:16;;;;;;;3.83;3.50;;;;;;;29.21;68.14;99145.19;4396534;32;20514;-74
2022/08/04 11:10:58;;;;;;;5.85;3.58;;;;;;;29.45;61.41;99143.16;4397653;32;20919;-73
2022/08/04 11:13:32;;;;;;;5.53;3.50;;;;;;;29.13;60.33;99112.97;4397335;32;20048;-72
2022/08/04 11:16:04;;;;;;;4.60;3.30;;;;;;;29.09;59.37;99139.84;4397472;32;20039;-74
2022/08/04 11:18:46;;;;;;;4.62;3.33;;;;;;;29.84;62.99;99143.75;4398620;32;20094;-73
2022/08/04 11:21:30;;;;;;;3.42;3.22;;;;;;;30.60;58.11;99145.41;4398524;32;20100;-73
2022/08/04 11:24:03;;;;;;;3.53;3.20;;;;;;;30.70;56.43;99138.34;4398341;32;20046;-74
2022/08/04 11:26:41;;;;;;;4.30;3.35;;;;;;;30.11;52.79;99134.53;4398234;32;20104;-73
2022/08/04 11:29:21;;;;;;;3.55;3.28;;;;;;;30.36;55.79;99091.16;4397345;32;20058;-73
2022/08/04 11:31:48;;;;;;;9.38;3.05;;;;;;;30.23;51.82;99150.94;4398360;32;20056;-73
2022/08/04 11:34:23;;;;;;;5.40;3.47;;;;;;;30.01;47.36;99155.44;4397785;32;20053;-73
2022/08/04 11:36:59;;;;;;;4.12;3.80;;;;;;;30.31;49.16;99130.41;4383095;32;20032;-73
2022/08/04 11:40:00;;;;;;;5.75;2.90;;;;;;;29.94;54.35;99120.06;4398935;32;20093;-73
2022/08/04 11:42:31;;;;;;;7.07;2.58;;;;;;;30.26;53.44;99144.62;4360977;32;20038;-74
2022/08/04 11:45:05;;;;;;;4.00;2.80;;;;;;;30.35;53.00;99111.81;4413694;32;20061;-73
2022/08/04 11:47:46;;;;;;;8.55;2.92;;;;;;;30.30;49.32;99126.03;4412679;32;20091;-72
2022/08/04 11:50:34;;;;;;;7.95;3.40;;;;;;;30.65;48.82;99119.28;4413011;32;20432;-76
2022/08/04 11:53:02;;;;;;;9.85;3.05;;;;;;;31.01;45.98;99114.03;4411411;32;20034;-75
2022/08/04 11:55:31;;;;;;;4.03;3.72;;;;;;;31.06;48.12;99144.22;4413629;32;20038;-74
2022/08/04 11:57:58;;;;;;;14.55;2.85;;;;;;;31.32;51.30;99101.53;4413460;32;20052;-74
2022/08/04 12:00:28;;;;;;;6.12;2.92;;;;;;;31.30;45.66;99128.91;4411725;32;20181;-74
2022/08/04 12:02:55;;;;;;;6.32;2.70;;;;;;;31.08;45.41;99141.88;4413029;32;20073;-73
2022/08/04 12:05:34;;;;;;;4.20;2.95;;;;;;;31.17;45.70;99140.75;4413535;32;20066;-72
2022/08/04 12:08:25;;;;;;;5.35;3.05;;;;;;;31.52;46.00;99134.63;4411533;32;20039;-75
2022/08/04 12:11:12;;;;;;;3.50;3.00;;;;;;;31.46;42.82;99139.75;4413563;32;20078;-73
2022/08/04 12:13:53;;;;;;;4.30;3.17;;;;;;;32.12;46.74;99110.25;4417620;32;20037;-75
2022/08/04 12:16:26;;;;;;;3.35;3.00;;;;;;;31.49;44.82;99138.97;4446454;32;20063;-72
2022/08/04 12:18:56;;;;;;;4.00;3.30;;;;;;;31.43;43.17;99140.53;4445957;32;20034;-74
2022/08/04 12:21:30;;;;;;;3.00;2.80;;;;;;;31.31;46.11;99138.06;4444070;32;20056;-74
2022/08/04 12:24:02;;;;;;;4.37;2.80;;;;;;;31.15;44.35;99091.88;4445851;32;20038;-74
2022/08/04 12:26:35;;;;;;;2.70;2.50;;;;;;;31.54;44.83;99106.44;4445099;32;20468;-75
2022/08/04 12:29:05;;;;;;;3.00;2.75;;;;;;;31.67;45.96;99099.34;4410765;32;20052;-75
2022/08/04 12:31:44;;;;;;;8.70;3.30;;;;;;;31.69;46.06;99131.16;4413267;32;20143;-74
2022/08/04 12:34:33;;;;;;;5.12;2.37;;;;;;;31.37;43.44;99103.16;4413088;32;20044;-74
2022/08/04 12:37:41;;;;;;;6.07;3.28;;;;;;;31.95;44.44;99131.28;4411972;32;20042;-75
2022/08/04 12:40:15;;;;;;;6.87;3.15;;;;;;;31.21;45.22;99113.75;4407013;32;20034;-74
2022/08/04 12:42:51;;;;;;;4.93;2.65;;;;;;;31.86;47.10;99118.53;4385712;32;20031;-73
2022/08/04 12:45:21;;;;;;;10.35;2.67;;;;;;;32.10;43.41;99098.72;4385725;32;20035;-73
2022/08/04 12:47:49;;;;;;;4.55;2.85;;;;;;;31.45;43.10;99093.66;4383604;32;20034;-75
2022/08/04 12:50:17;;;;;;;3.10;2.90;;;;;;;31.95;43.59;99114.56;4385351;32;20081;-73
2022/08/04 12:52:53;;;;;;;3.47;3.25;;;;;;;30.96;46.10;99078.25;4353814;32;20051;-73
2022/08/04 12:55:22;;;;;;;2.53;2.20;;;;;;;31.47;46.71;99107.16;4355608;32;20086;-73
2022/08/04 12:57:52;;;;;;;7.45;2.65;;;;;;;32.03;45.15;99096.69;4354133;32;20069;-73
2022/08/04 13:00:32;;;;;;;11.18;2.70;;;;;;;31.61;41.38;99084.19;4364066;32;20061;-72
2022/08/04 13:03:06;;;;;;;2.58;2.45;;;;;;;31.41;41.90;99080.91;4370141;32;20344;-73
2022/08/04 13:05:33;;;;;;;6.15;2.70;;;;;;;31.18;42.11;99107.00;4339635;33;20036;-77
2022/08/04 13:08:03;;;;;;;3.92;2.53;;;;;;;31.19;41.46;99102.22;4340021;33;20192;-73
2022/08/04 13:10:35;;;;;;;3.72;2.55;;;;;;;31.46;44.71;99072.97;4339580;33;20401;-73
2022/08/04 13:13:02;;;;;;;7.93;2.70;;;;;;;31.13;41.84;99071.19;4349031;32;20425;-73
2022/08/04 13:15:32;;;;;;;5.03;2.53;;;;;;;31.23;41.37;99103.84;4384932;32;20032;-75
2022/08/04 13:18:07;;;;;;;7.87;2.35;;;;;;;30.89;44.00;99078.16;4384917;32;20049;-73
2022/08/04 13:20:37;;;;;;;2.90;2.78;;;;;;;30.28;43.44;99100.59;4384063;32;20435;-73
2022/08/04 13:23:05;;;;;;;6.47;2.75;;;;;;;30.86;46.89;99068.63;4390905;32;20413;-73
2022/08/04 13:25:32;;;;;;;3.92;3.10;;;;;;;31.03;44.03;99072.72;4414170;32;20092;-75
2022/08/04 13:28:01;;;;;;;3.47;2.40;;;;;;;31.09;46.06;99087.84;4414480;32;20064;-73
2022/08/04 13:30:31;;;;;;;2.67;2.55;;;;;;;30.78;46.65;99039.19;4398602;32;20423;-72
2022/08/04 13:33:03;;;;;;;9.43;2.60;;;;;;;30.24;48.47;99074.81;4400239;32;20061;-72
2022/08/04 13:35:45;;;;;;;2.87;2.67;;;;;;;30.26;47.16;99041.88;4395447;32;20043;-74
2022/08/04 13:38:13;;;;;;;3.97;2.65;;;;;;;30.42;46.72;99050.78;4385015;32;20043;-73
2022/08/04 13:40:42;;;;;;;6.57;2.90;;;;;;;30.54;45.08;99046.13;4390685;32;20057;-73
2022/08/04 13:43:12;;;;;;;3.30;2.53;;;;;;;30.65;44.89;99080.38;4429095;32;20022;-73
2022/08/04 13:45:40;;;;;;;6.07;3.07;;;;;;;30.50;52.08;99048.09;4428573;32;20038;-73
2022/08/04 13:48:09;;;;;;;3.95;3.20;;;;;;;30.32;52.00;99073.69;4429991;32;20063;-75
2022/08/04 13:50:37;;;;;;;2.22;2.12;;;;;;;29.51;50.91;99047.38;4430037;32;20029;-73
2022/08/04 13:53:03;;;;;;;5.37;2.83;;;;;;;30.25;50.40;99079.16;4428637;32;20056;-75
2022/08/04 13:55:35;;;;;;;2.90;2.70;;;;;;;30.25;49.05;99045.84;4398493;32;20051;-76
2022/08/04 13:58:08;;;;;;;3.92;2.33;;;;;;;30.19;48.67;99037.06;4400205;32;20144;-72
2022/08/04 14:00:45;;;;;;;3.62;3.40;;;;;;;30.95;47.40;99065.50;4398483;32;20056;-73
2022/08/04 14:03:27;;;;;;;6.12;3.05;;;;;;;31.13;47.35;99072.00;4384292;32;20084;-72
2022/08/04 14:06:14;;;;;;;4.85;3.10;;;;;;;30.88;48.99;99009.87;4382209;32;20060;-72
2022/08/04 14:08:53;;;;;;;10.07;2.87;;;;;;;31.39;45.93;99061.03;4376784;32;20043;-73
2022/08/04 14:11:48;;;;;;;3.53;2.75;;;;;;;30.92;49.47;99060.69;4384186;32;20078;-72
2022/08/04 14:14:20;;;;;;;2.92;2.60;;;;;;;30.68;46.97;99035.13;4379729;32;20388;-71
2022/08/04 14:17:01;;;;;;;8.23;3.03;;;;;;;30.70;50.15;99062.53;4382583;32;20043;-73
2022/08/04 14:19:35;;;;;;;6.10;2.97;;;;;;;30.05;49.21;99031.38;4382376;32;20394;-73
2022/08/04 14:22:02;;;;;;;20.62;3.30;;;;;;;30.06;50.95;99019.88;4367593;32;20034;-71
2022/08/04 14:24:28;;;;;;;6.93;2.58;;;;;;;30.45;49.64;99071.44;4383821;32;20128;-71
2022/08/04 14:26:59;;;;;;;9.75;3.30;;;;;;;30.18;46.33;99037.44;4370377;32;20032;-71
2022/08/04 14:29:36;;;;;;;6.70;2.97;;;;;;;30.29;48.48;99052.22;4393626;32;20050;-72
2022/08/04 14:32:07;;;;;;;2.80;2.70;;;;;;;30.74;51.06;99055.81;4401740;32;20056;-72
2022/08/04 14:34:37;;;;;;;7.03;2.67;;;;;;;30.73;49.55;99029.22;4419913;32;20111;-71
2022/08/04 14:37:10;;;;;;;7.80;3.28;;;;;;;30.89;50.04;99044.78;4417767;32;20383;-73
2022/08/04 14:39:37;;;;;;;7.18;2.70;;;;;;;30.67;49.91;99033.53;4413179;32;20118;-73
2022/08/04 14:42:05;;;;;;;4.97;2.58;;;;;;;30.43;52.50;99041.28;4421252;32;20054;-72
2022/08/04 14:44:51;;;;;;;8.73;2.65;;;;;;;30.34;51.23;99009.44;4419116;32;20030;-72
2022/08/04 14:47:27;;;;;;;11.88;2.50;;;;;;;30.56;50.22;98982.66;4419762;32;20037;-72
2022/08/04 14:49:54;;;;;;;11.35;2.85;;;;;;;30.88;48.63;99041.22;4414637;32;20356;-73
2022/08/04 14:52:27;;;;;;;5.87;2.50;;;;;;;30.37;47.56;99025.31;4398565;32;20419;-74
2022/08/04 14:54:54;;;;;;;9.82;3.00;;;;;;;30.72;45.98;99041.50;4398102;32;20027;-74
2022/08/04 14:57:20;;;;;;;5.85;2.67;;;;;;;30.76;47.92;99025.69;4409524;32;20054;-73
2022/08/04 14:59:48;;;;;;;5.35;2.78;;;;;;;30.44;50.67;99033.75;4426151;32;20068;-73
2022/08/04 15:02:15;;;;;;;11.70;2.55;;;;;;;30.77;52.64;99032.81;4397350;32;20027;-72
2022/08/04 15:04:44;;;;;;;3.05;2.85;;;;;;;30.57;52.32;99003.69;4400738;32;20056;-72
2022/08/04 15:07:11;;;;;;;3.17;2.80;;;;;;;30.45;55.47;98970.66;4410574;32;20057;-72
2022/08/04 15:09:37;;;;;;;8.93;2.40;;;;;;;30.82;53.03;99036.41;4414028;32;20068;-73
2022/08/04 15:12:04;;;;;;;3.37;2.85;;;;;;;30.67;48.88;99025.22;4397147;32;20385;-72
2022/08/04 15:14:31;;;;;;;5.15;3.00;;;;;;;30.62;50.46;99000.56;4398102;32;20376;-72
2022/08/04 15:17:05;;;;;;;9.70;3.75;;;;;;;30.51;51.22;99011.59;4401927;32;20104;-73
2022/08/04 15:19:33;;;;;;;2.90;2.47;;;;;;;30.50;52.15;99045.31;4413868;32;20049;-72
2022/08/04 15:22:06;;;;;;;9.98;2.72;;;;;;;30.37;52.47;99042.00;4408647;32;20038;-72
2022/08/04 15:24:33;;;;;;;6.82;3.15;;;;;;;30.41;50.20;99024.22;4396429;32;20203;-72
2022/08/04 15:27:01;;;;;;;6.22;2.90;;;;;;;30.11;50.19;99021.53;4395478;32;20054;-73
2022/08/04 15:29:33;;;;;;;8.30;3.08;;;;;;;30.42;50.16;99027.78;4398437;32;20278;-72
2022/08/04 15:32:03;;;;;;;4.28;2.55;;;;;;;30.67;48.27;99027.97;4398622;32;20035;-72
2022/08/04 15:34:49;;;;;;;3.05;2.67;;;;;;;30.57;48.58;98989.78;4398264;32;20046;-72
2022/08/04 15:37:35;;;;;;;6.68;2.47;;;;;;;30.78;47.73;98998.28;4399438;32;20084;-72
2022/08/04 15:40:36;;;;;;;2.62;2.53;;;;;;;31.20;48.82;99025.97;4413732;32;20074;-72
2022/08/04 15:43:21;;;;;;;4.97;2.20;;;;;;;31.31;47.10;99035.16;4403676;32;20033;-72
2022/08/04 15:45:53;;;;;;;8.15;3.12;;;;;;;31.60;44.18;99032.53;4405953;32;20055;-73
2022/08/04 15:48:24;;;;;;;5.62;3.28;;;;;;;31.53;44.09;99033.31;4411923;32;20415;-73
2022/08/04 15:50:59;;;;;;;8.38;3.55;;;;;;;31.56;45.61;99003.88;4414789;32;20043;-71
2022/08/04 15:53:27;;;;;;;7.67;2.83;;;;;;;32.01;44.61;99021.91;4395996;32;20076;-72
2022/08/04 15:55:53;;;;;;;4.55;2.97;;;;;;;31.89;43.73;99024.28;4397669;32;20387;-71
2022/08/04 15:58:21;;;;;;;9.13;3.45;;;;;;;31.86;45.26;99015.53;4397368;32;20038;-71
2022/08/04 16:00:57;;;;;;;10.40;3.15;;;;;;;32.14;43.16;98994.50;4397456;32;20417;-72
2022/08/04 16:03:43;;;;;;;3.05;2.85;;;;;;;32.31;43.82;99017.19;4391899;32;20039;-72
2022/08/04 16:06:11;;;;;;;9.05;3.15;;;;;;;32.40;41.30;98986.94;4392350;32;20512;-71
2022/08/04 16:09:02;;;;;;;3.58;3.28;;;;;;;33.02;39.36;98990.50;4396743;32;20425;-72
2022/08/04 16:11:29;;;;;;;7.82;3.17;;;;;;;33.50;39.52;99020.63;4363622;32;20081;-70
2022/08/04 16:13:58;;;;;;;5.47;3.00;;;;;;;33.96;36.97;98991.69;4370296;32;20453;-72
2022/08/04 16:16:46;;;;;;;2.72;2.58;;;;;;;34.50;36.43;99018.47;4373885;32;20059;-73
2022/08/04 16:19:46;;;;;;;3.03;2.83;;;;;;;34.52;36.15;99030.00;4385765;32;20055;-72
2022/08/04 16:22:31;;;;;;;4.18;2.97;;;;;;;34.23;37.06;99021.84;4351831;32;20047;-73
2022/08/04 16:24:59;;;;;;;14.05;3.60;;;;;;;34.61;34.85;98988.41;4376673;32;20430;-74
2022/08/04 16:27:38;;;;;;;5.80;3.22;;;;;;;35.05;36.37;99025.94;4382921;32;20023;-73
2022/08/04 16:30:14;;;;;;;7.65;3.08;;;;;;;35.65;33.60;98992.06;4384376;32;20124;-73
2022/08/04 16:32:44;;;;;;;6.45;3.10;;;;;;;36.90;33.25;99020.16;4384766;32;20049;-72
2022/08/04 16:35:18;;;;;;;2.78;2.58;;;;;;;36.05;32.84;99017.53;4385609;32;20108;-72
2022/08/04 16:37:45;;;;;;;5.30;3.05;;;;;;;36.50;32.72;99019.25;4379844;32;20058;-74
2022/08/04 16:40:27;;;;;;;6.07;2.80;;;;;;;35.90;32.18;98988.13;4385091;32;20043;-71
2022/08/04 16:43:01;;;;;;;5.80;2.80;;;;;;;35.29;33.80;99006.50;4373626;32;20437;-72
2022/08/04 16:45:45;;;;;;;9.10;3.40;;;;;;;35.60;34.25;99010.13;4383035;32;20039;-71
2022/08/04 16:48:13;;;;;;;3.10;3.00;;;;;;;35.73;33.50;99015.94;4384702;32;20046;-71
2022/08/04 16:50:46;;;;;;;3.62;2.70;;;;;;;35.02;33.33;98998.78;4385702;32;20068;-74
2022/08/04 16:53:18;;;;;;;11.75;5.35;;;;;;;34.82;34.74;99023.78;4386060;32;20056;-72
2022/08/04 16:55:46;;;;;;;3.17;2.97;;;;;;;33.44;36.15;98985.97;4379541;32;20031;-72
2022/08/04 16:58:13;;;;;;;12.75;3.15;;;;;;;32.46;37.81;98977.00;4373564;32;20389;-72
2022/08/04 17:00:40;;;;;;;4.40;3.15;;;;;;;32.35;39.84;98992.94;4393043;32;20061;-71
2022/08/04 17:03:11;;;;;;;4.15;2.70;;;;;;;32.18;40.23;98992.53;4412840;32;20473;-72
2022/08/04 17:05:38;;;;;;;8.38;3.17;;;;;;;31.82;42.12;98972.97;4405229;32;20048;-71
2022/08/04 17:08:04;;;;;;;7.80;3.58;;;;;;;31.47;46.38;99018.16;4407069;32;20054;-72
2022/08/04 17:10:37;;;;;;;3.08;2.87;;;;;;;31.12;47.82;99000.09;4399398;32;20112;-71
2022/08/04 17:13:21;;;;;;;10.98;3.17;;;;;;;30.86;45.93;99012.22;4399436;32;20079;-71
2022/08/04 17:15:50;;;;;;;3.12;2.45;;;;;;;30.21;49.15;99006.16;4420640;32;20173;-72
2022/08/04 17:18:21;;;;;;;18.95;3.08;;;;;;;29.68;52.32;99007.97;4420628;32;20048;-72
2022/08/04 17:20:48;;;;;;;4.82;2.75;;;;;;;29.40;55.90;98996.53;4414253;32;20187;-72
2022/08/04 17:23:26;;;;;;;5.65;2.55;;;;;;;29.21;58.10;99001.03;4425957;32;20064;-72
2022/08/04 17:25:57;;;;;;;4.28;3.25;;;;;;;28.90;61.48;98997.44;4427090;32;20056;-72
2022/08/04 17:28:25;;;;;;;4.80;2.87;;;;;;;28.86;62.50;99012.41;4417639;32;20038;-72
2022/08/04 17:30:54;;;;;;;10.10;3.45;;;;;;;28.51;64.26;98975.44;4405131;32;20056;-72
2022/08/04 17:33:22;;;;;;;4.25;3.70;;;;;;;28.62;68.47;99001.38;4383985;32;20076;-71
2022/08/04 17:35:57;;;;;;;2.72;2.53;;;;;;;28.42;67.83;98972.94;4381359;32;20046;-71
2022/08/04 17:38:45;;;;;;;9.27;3.42;;;;;;;28.43;69.50;98968.19;4393108;32;20790;-71
2022/08/04 17:41:13;;;;;;;8.02;2.80;;;;;;;27.88;70.06;98894.53;4381140;32;20067;-71
2022/08/04 17:43:45;;;;;;;9.88;3.00;;;;;;;28.51;73.24;98992.03;4384605;32;20191;-71
2022/08/04 17:46:18;;;;;;;7.62;3.12;;;;;;;28.55;70.59;99004.00;4376593;32;20051;-71
2022/08/04 17:49:04;;;;;;;13.50;3.17;;;;;;;28.45;73.85;99004.63;4351524;32;20174;-71
2022/08/04 17:51:59;;;;;;;3.30;3.05;;;;;;;28.12;75.66;98974.81;4336200;33;20083;-72
2022/08/04 17:54:34;;;;;;;16.90;2.92;;;;;;;28.11;76.41;99001.66;4338676;33;20040;-72
2022/08/04 17:57:16;;;;;;;7.05;3.03;;;;;;;28.08;77.49;98996.84;4338084;33;20060;-70
2022/08/04 17:59:53;;;;;;;3.50;3.20;;;;;;;27.86;82.00;99004.75;4340501;33;20048;-71
2022/08/04 18:02:23;;;;;;;10.35;3.15;;;;;;;27.57;81.78;98997.06;4342931;32;20036;-71
2022/08/04 18:04:53;;;;;;;15.88;3.25;;;;;;;27.09;85.81;98964.87;4363174;32;20059;-72
2022/08/04 18:07:34;;;;;;;8.93;3.55;;;;;;;27.30;85.92;98991.34;4366814;32;20150;-72
2022/08/04 18:10:01;;;;;;;7.07;3.20;;;;;;;27.07;87.43;98994.81;4367869;32;20181;-72
2022/08/04 18:12:30;;;;;;;7.50;3.55;;;;;;;26.89;88.66;98988.13;4366893;32;20741;-71
2022/08/04 18:15:00;;;;;;;6.07;4.57;;;;;;;26.86;89.38;99000.69;4369332;32;20438;-72
2022/08/04 18:17:33;;;;;;;4.95;3.22;;;;;;;26.87;89.89;98998.69;4369823;32;20044;-70
2022/08/04 18:20:08;;;;;;;2.92;2.62;;;;;;;26.79;91.40;98989.47;4383791;32;20038;-70
2022/08/04 18:22:40;;;;;;;7.70;3.55;;;;;;;26.69;90.83;98970.69;4404157;32;20071;-70
2022/08/04 18:25:12;;;;;;;7.93;3.30;;;;;;;26.85;91.28;98999.06;4462486;32;20055;-72
2022/08/04 18:28:08;;;;;;;3.37;3.05;;;;;;;26.89;91.05;99007.44;4461088;32;20344;-71
2022/08/04 18:30:35;;;;;;;11.25;3.55;;;;;;;26.78;92.31;99016.28;4453984;32;20082;-71
2022/08/04 18:33:02;;;;;;;4.05;3.72;;;;;;;26.70;94.89;99014.50;4452798;32;20085;-71
2022/08/04 18:35:32;;;;;;;7.50;3.42;;;;;;;26.54;94.72;99016.47;4453339;32;20191;-71
2022/08/04 18:38:00;;;;;;;16.90;4.03;;;;;;;26.41;95.45;99011.03;4460943;32;20298;-71
2022/08/04 18:40:27;;;;;;;11.27;3.28;;;;;;;26.30;96.55;99022.97;4462484;32;20060;-70
2022/08/04 18:42:53;;;;;;;8.93;3.37;;;;;;;26.12;97.96;98998.47;4423411;32;20052;-71
2022/08/04 18:45:19;;;;;;;5.53;2.95;;;;;;;26.08;98.33;99012.16;4420025;32;20360;-71
2022/08/04 18:47:46;;;;;;;7.03;3.45;;;;;;;25.80;99.57;98968.06;4422454;32;20387;-71
2022/08/04 18:50:12;;;;;;;8.30;3.40;;;;;;;26.03;98.91;99009.66;4425096;32;20700;-70
2022/08/04 18:52:39;;;;;;;6.68;3.10;;;;;;;25.54;99.46;98935.44;4404655;32;20432;-71
2022/08/04 18:55:06;;;;;;;4.37;3.33;;;;;;;25.84;100.00;99010.31;4406457;32;20033;-71
2022/08/04 18:57:33;;;;;;;5.57;3.42;;;;;;;25.55;100.00;99005.97;4404617;32;20070;-72
2022/08/04 19:00:02;;;;;;;11.60;3.60;;;;;;;25.91;100.00;99017.97;4411445;32;20074;-71
2022/08/04 19:02:29;;;;;;;3.62;3.33;;;;;;;25.61;100.00;98977.00;4411133;32;20080;-70
2022/08/04 19:04:55;;;;;;;6.30;4.40;;;;;;;25.49;100.00;99018.37;4406655;32;20029;-71
2022/08/04 19:07:21;;;;;;;8.95;4.43;;;;;;;25.73;100.00;99025.75;4411705;32;20111;-72
2022/08/04 19:09:48;;;;;;;14.07;4.03;;;;;;;25.44;100.00;98978.09;4411146;32;20192;-72
2022/08/04 19:12:14;;;;;;;5.95;2.87;;;;;;;25.82;100.00;99017.34;4412626;32;20042;-72
2022/08/04 19:14:40;;;;;;;9.02;3.45;;;;;;;25.76;100.00;99021.50;4425892;32;20145;-72
2022/08/04 19:17:07;;;;;;;8.32;3.53;;;;;;;25.61;100.00;98988.03;4420061;32;20075;-71
2022/08/04 19:19:33;;;;;;;10.27;3.30;;;;;;;25.53;100.00;99002.75;4402198;32;20034;-71
2022/08/04 19:22:00;;;;;;;7.72;3.78;;;;;;;25.27;100.00;98984.66;4402577;32;20183;-72
2022/08/04 19:24:26;;;;;;;4.70;3.40;;;;;;;25.35;100.00;99024.28;4387926;32;20056;-71
2022/08/04 19:26:54;;;;;;;10.35;3.50;;;;;;;25.30;100.00;99017.06;4393694;32;20034;-72
2022/08/04 19:29:20;;;;;;;6.43;3.20;;;;;;;25.23;100.00;99016.81;4397217;32;20023;-72
2022/08/04 19:31:47;;;;;;;6.22;3.53;;;;;;;25.35;100.00;99027.84;4391781;32;20069;-72
2022/08/04 19:34:13;;;;;;;10.25;4.03;;;;;;;25.13;100.00;99014.53;4390282;32;20072;-71
2022/08/04 19:36:39;;;;;;;7.82;4.25;;;;;;;25.06;100.00;99017.09;4392573;32;20035;-72
2022/08/04 19:39:07;;;;;;;9.65;3.80;;;;;;;24.74;100.00;98989.38;4380624;32;20047;-72
2022/08/04 19:41:35;;;;;;;3.78;3.40;;;;;;;25.02;100.00;99034.31;4380334;32;20035;-72
2022/08/04 19:44:03;;;;;;;13.32;3.50;;;;;;;24.83;100.00;98998.31;4382020;32;20088;-72